createdAt,value
2023-01-25T00:02:19.909Z,6.25
2023-01-25T00:04:47.354Z,6.28
2023-01-25T00:07:14.642Z,6.07
2023-01-25T00:09:41.897Z,6.53
2023-01-25T00:12:09.140Z,6.30
2023-01-25T00:14:36.315Z,5.50
2023-01-25T00:17:03.541Z,6.10
2023-01-25T00:19:31.062Z,6.13
2023-01-25T00:21:58.331Z,5.40
2023-01-25T00:24:25.983Z,6.10
2023-01-25T00:26:53.296Z,5.57
2023-01-25T00:29:20.700Z,5.65
2023-01-25T00:32:08.689Z,6.20
2023-01-25T00:34:45.291Z,6.00
2023-01-25T00:37:15.613Z,5.60
2023-01-25T00:39:42.903Z,6.63
2023-01-25T00:42:15.605Z,6.50
2023-01-25T00:44:42.873Z,6.95
2023-01-25T00:47:11.132Z,5.32
2023-01-25T00:49:39.767Z,6.50
2023-01-25T00:52:07.205Z,6.72
2023-01-25T00:54:34.724Z,6.57
2023-01-25T00:57:01.938Z,6.93
2023-01-25T00:59:29.284Z,6.13
2023-01-25T01:01:56.587Z,5.35
2023-01-25T01:04:26.853Z,6.07
2023-01-25T01:06:54.767Z,6.10
2023-01-25T01:09:23.368Z,5.50
2023-01-25T01:11:50.833Z,5.47
2023-01-25T01:14:18.438Z,4.97
2023-01-25T01:16:45.937Z,4.80
2023-01-25T01:19:13.279Z,5.10
2023-01-25T01:21:40.513Z,4.45
2023-01-25T01:24:08.187Z,5.00
2023-01-25T01:26:35.490Z,4.82
2023-01-25T01:29:02.695Z,4.15
2023-01-25T01:31:30.008Z,4.82
2023-01-25T01:33:58.442Z,5.00
2023-01-25T01:36:27.083Z,4.65
2023-01-25T01:38:54.397Z,4.20
2023-01-25T01:41:21.903Z,4.53
2023-01-25T01:43:49.537Z,4.63
2023-01-25T01:46:29.864Z,4.68
2023-01-25T01:49:20.500Z,4.50
2023-01-25T01:51:50.553Z,4.30
2023-01-25T01:54:46.657Z,4.78
2023-01-25T01:57:15.089Z,5.65
2023-01-25T01:59:45.319Z,4.63
2023-01-25T02:02:13.122Z,4.78
2023-01-25T02:04:40.703Z,5.78
2023-01-25T02:07:12.516Z,7.13
2023-01-25T02:09:40.099Z,6.30
2023-01-25T02:12:08.117Z,5.72
2023-01-25T02:14:35.528Z,5.72
2023-01-25T02:17:04.495Z,5.45
2023-01-25T02:19:54.763Z,5.22
2023-01-25T02:22:25.344Z,4.72
2023-01-25T02:25:12.253Z,5.63
2023-01-25T02:27:43.043Z,5.47
2023-01-25T02:30:10.603Z,5.53
2023-01-25T02:32:38.020Z,4.88
2023-01-25T02:35:06.440Z,5.25
2023-01-25T02:37:33.938Z,5.07
2023-01-25T02:40:01.158Z,4.68
2023-01-25T02:42:31.514Z,4.82
2023-01-25T02:44:58.837Z,4.93
2023-01-25T02:47:26.055Z,5.18
2023-01-25T02:49:53.314Z,5.35
2023-01-25T02:52:20.512Z,5.82
2023-01-25T02:54:47.801Z,5.50
2023-01-25T02:57:15.087Z,5.95
2023-01-25T02:59:42.347Z,5.57
2023-01-25T03:02:09.603Z,6.82
2023-01-25T03:04:36.863Z,6.90
2023-01-25T03:07:04.209Z,5.72
2023-01-25T03:09:31.408Z,6.25
2023-01-25T03:11:58.610Z,5.93
2023-01-25T03:14:26.407Z,6.13
2023-01-25T03:16:53.604Z,6.55
2023-01-25T03:19:20.863Z,5.80
2023-01-25T03:21:49.389Z,6.60
2023-01-25T03:24:16.724Z,6.10
2023-01-25T03:27:02.886Z,6.15
2023-01-25T03:29:30.122Z,5.30
2023-01-25T03:31:57.427Z,6.15
2023-01-25T03:34:24.706Z,6.18
2023-01-25T03:36:51.931Z,11.38
2023-01-25T03:39:19.156Z,18.67
2023-01-25T03:41:46.439Z,6.93
2023-01-25T03:44:13.832Z,5.45
2023-01-25T03:46:41.779Z,5.63
2023-01-25T03:49:10.046Z,5.82
2023-01-25T03:51:37.609Z,5.57
2023-01-25T03:54:05.322Z,5.60
2023-01-25T03:56:32.462Z,5.63
2023-01-25T03:58:59.692Z,5.78
2023-01-25T04:01:26.968Z,5.65
2023-01-25T04:03:54.245Z,6.22
2023-01-25T04:06:21.483Z,6.47
2023-01-25T04:08:49.879Z,6.57
2023-01-25T04:11:17.122Z,6.53
2023-01-25T04:13:44.350Z,7.05
2023-01-25T04:16:12.482Z,6.95
2023-01-25T04:18:40.783Z,8.87
2023-01-25T04:21:08.319Z,8.30
2023-01-25T04:23:35.651Z,9.18
2023-01-25T04:26:05.797Z,8.73
2023-01-25T04:28:33.994Z,8.93
2023-01-25T04:31:01.687Z,32.47
2023-01-25T04:33:28.919Z,17.83
2023-01-25T04:35:56.413Z,11.63
2023-01-25T04:38:23.668Z,9.52
2023-01-25T04:40:51.539Z,9.48
2023-01-25T04:43:19.394Z,9.60
2023-01-25T04:45:46.846Z,9.68
2023-01-25T04:48:15.200Z,9.00
2023-01-25T04:50:42.961Z,9.38
2023-01-25T04:53:10.822Z,8.85
2023-01-25T04:55:38.122Z,9.02
2023-01-25T04:58:05.454Z,9.63
2023-01-25T05:00:33.058Z,9.52
2023-01-25T05:03:00.303Z,8.40
2023-01-25T05:05:27.481Z,9.05
2023-01-25T05:07:54.730Z,9.60
2023-01-25T05:10:22.031Z,9.00
2023-01-25T05:12:49.220Z,10.32
2023-01-25T05:15:16.711Z,10.43
2023-01-25T05:17:43.968Z,11.23
2023-01-25T05:20:11.538Z,10.98
2023-01-25T05:22:38.789Z,10.68
2023-01-25T05:25:26.125Z,10.65
2023-01-25T05:27:53.483Z,10.70
2023-01-25T05:30:20.751Z,9.52
2023-01-25T05:32:49.053Z,10.27
2023-01-25T05:35:16.452Z,11.20
2023-01-25T05:37:43.721Z,11.57
2023-01-25T05:40:11.279Z,14.52
2023-01-25T05:42:39.413Z,10.32
2023-01-25T05:45:07.433Z,10.77
2023-01-25T05:47:34.901Z,10.57
2023-01-25T05:50:02.130Z,11.73
2023-01-25T05:52:29.368Z,11.95
2023-01-25T05:54:56.645Z,10.68
2023-01-25T05:57:24.618Z,10.73
2023-01-25T05:59:51.853Z,11.20
2023-01-25T06:02:19.132Z,11.52
2023-01-25T06:04:46.528Z,9.82
2023-01-25T06:07:13.934Z,10.73
2023-01-25T06:09:41.117Z,11.77
2023-01-25T06:12:10.384Z,13.95
2023-01-25T06:14:39.601Z,13.40
2023-01-25T06:17:06.910Z,12.13
2023-01-25T06:19:34.104Z,12.57
2023-01-25T06:22:01.360Z,12.88
2023-01-25T06:24:28.905Z,12.70
2023-01-25T06:26:56.261Z,15.13
2023-01-25T06:29:23.459Z,14.30
2023-01-25T06:31:50.724Z,18.95
2023-01-25T06:34:18.145Z,12.30
2023-01-25T06:36:45.408Z,12.10
2023-01-25T06:39:13.039Z,10.85
2023-01-25T06:41:40.215Z,11.38
2023-01-25T06:44:07.497Z,10.93
2023-01-25T06:46:34.788Z,11.15
2023-01-25T06:49:02.111Z,11.85
2023-01-25T06:51:29.989Z,12.23
2023-01-25T06:53:57.216Z,10.57
2023-01-25T06:56:24.869Z,11.57
2023-01-25T06:58:52.063Z,12.20
2023-01-25T07:01:20.888Z,10.93
2023-01-25T07:06:15.274Z,13.98
2023-01-25T07:08:42.473Z,12.90
2023-01-25T07:11:13.651Z,14.05
2023-01-25T07:13:41.838Z,16.08
2023-01-25T07:16:12.089Z,14.85
2023-01-25T07:18:39.432Z,14.52
2023-01-25T07:21:08.511Z,14.73
2023-01-25T07:23:37.983Z,13.70
2023-01-25T07:26:05.769Z,29.05
2023-01-25T07:28:33.507Z,20.48
2023-01-25T07:31:07.831Z,15.23
2023-01-25T07:33:35.546Z,14.23
2023-01-25T07:36:09.444Z,12.93
2023-01-25T07:38:37.252Z,13.10
2023-01-25T07:41:04.784Z,13.60
2023-01-25T07:43:32.100Z,12.20
2023-01-25T07:46:03.314Z,11.93
2023-01-25T07:48:32.262Z,12.45
2023-01-25T07:51:13.109Z,33.38
2023-01-25T07:53:40.982Z,18.70
2023-01-25T07:56:08.544Z,13.98
2023-01-25T07:58:35.802Z,14.60
2023-01-25T08:01:10.079Z,15.63
2023-01-25T08:03:37.521Z,14.20
2023-01-25T08:06:08.161Z,14.60
2023-01-25T08:08:36.741Z,13.80
2023-01-25T08:11:10.158Z,14.30
2023-01-25T08:13:37.737Z,12.10
2023-01-25T08:16:05.243Z,14.05
2023-01-25T08:18:34.204Z,15.52
2023-01-25T08:21:03.368Z,15.90
2023-01-25T08:23:30.827Z,15.25
2023-01-25T08:26:02.291Z,13.95
2023-01-25T08:28:29.502Z,14.57
2023-01-25T08:30:57.711Z,15.10
2023-01-25T08:33:25.022Z,14.10
2023-01-25T08:35:56.788Z,15.73
2023-01-25T08:38:24.465Z,14.80
2023-01-25T08:40:52.057Z,14.68
2023-01-25T08:43:19.439Z,12.95
2023-01-25T08:45:46.809Z,13.90
2023-01-25T08:48:15.834Z,15.52
2023-01-25T08:53:15.286Z,13.98
2023-01-25T08:55:43.182Z,13.25
2023-01-25T08:58:13.995Z,15.27
2023-01-25T09:00:42.115Z,15.55
2023-01-25T09:03:09.533Z,14.10
2023-01-25T09:05:38.016Z,14.93
2023-01-25T09:08:06.955Z,15.27
2023-01-25T09:10:35.400Z,14.18
2023-01-25T09:13:02.990Z,14.25
2023-01-25T09:15:30.232Z,15.27
2023-01-25T09:17:58.109Z,15.63
2023-01-25T09:20:25.633Z,14.13
2023-01-25T09:22:56.126Z,16.02
2023-01-25T09:25:23.356Z,15.27
2023-01-25T09:27:51.459Z,17.08
2023-01-25T09:30:19.567Z,16.00
2023-01-25T09:32:49.764Z,14.60
2023-01-25T09:35:17.247Z,14.55
2023-01-25T09:37:44.492Z,15.57
2023-01-25T09:40:20.489Z,16.23
2023-01-25T09:43:07.989Z,15.05
2023-01-25T09:45:36.429Z,15.10
2023-01-25T09:48:09.780Z,17.52
2023-01-25T09:50:38.921Z,14.10
2023-01-25T09:53:15.144Z,14.00
2023-01-25T09:55:42.754Z,15.05
2023-01-25T09:58:15.831Z,13.25
2023-01-25T10:00:45.532Z,14.55
2023-01-25T10:03:16.783Z,14.55
2023-01-25T10:05:49.121Z,14.45
2023-01-25T10:08:21.888Z,15.18
2023-01-25T10:10:51.676Z,15.15
2023-01-25T10:13:22.120Z,15.63
2023-01-25T10:15:54.967Z,16.42
2023-01-25T10:18:28.068Z,15.35
2023-01-25T10:20:59.583Z,15.13
2023-01-25T10:23:42.374Z,15.10
2023-01-25T10:26:29.918Z,16.10
2023-01-25T10:28:57.101Z,15.02
2023-01-25T10:31:30.228Z,15.43
2023-01-25T10:33:57.780Z,14.07
2023-01-25T10:36:29.373Z,15.48
2023-01-25T10:39:01.173Z,14.30
2023-01-25T10:41:35.176Z,14.88
2023-01-25T10:44:21.313Z,15.50
2023-01-25T10:47:20.742Z,14.23
2023-01-25T10:49:58.210Z,14.27
2023-01-25T10:52:26.818Z,15.68
2023-01-25T10:55:12.536Z,13.70
2023-01-25T10:57:43.589Z,12.57
2023-01-25T11:00:21.227Z,15.43
2023-01-25T11:02:48.851Z,15.18
2023-01-25T11:05:29.845Z,14.02
2023-01-25T11:07:58.044Z,13.95
2023-01-25T11:10:25.207Z,13.83
2023-01-25T11:13:12.372Z,11.98
2023-01-25T11:15:39.702Z,12.02
2023-01-25T11:18:07.920Z,12.40
2023-01-25T11:20:35.107Z,13.27
2023-01-25T11:23:02.398Z,12.38
2023-01-25T11:25:34.129Z,12.27
2023-01-25T11:28:21.364Z,12.23
2023-01-25T11:30:49.162Z,13.52
2023-01-25T11:33:17.833Z,13.18
2023-01-25T11:36:03.645Z,12.38
2023-01-25T11:38:31.050Z,13.32
2023-01-25T11:41:04.648Z,12.73
2023-01-25T11:43:31.859Z,12.27
2023-01-25T11:46:11.074Z,11.35
2023-01-25T11:48:43.567Z,12.65
2023-01-25T11:51:20.246Z,12.07
2023-01-25T11:54:08.918Z,10.80
2023-01-25T11:56:42.668Z,11.40
2023-01-25T11:59:17.395Z,10.15
2023-01-25T12:01:48.697Z,10.30
2023-01-25T12:04:33.180Z,10.05
2023-01-25T12:07:03.987Z,11.30
2023-01-25T12:09:43.126Z,17.38
2023-01-25T12:12:23.210Z,13.68
2023-01-25T12:15:07.553Z,9.95
2023-01-25T12:18:02.334Z,11.90
2023-01-25T12:20:34.573Z,10.50
2023-01-25T12:23:04.663Z,12.70
2023-01-25T12:26:11.907Z,13.73
2023-01-25T12:28:39.130Z,11.65
2023-01-25T12:31:12.641Z,11.63
2023-01-25T12:33:39.955Z,11.52
2023-01-25T12:36:07.263Z,12.55
2023-01-25T12:38:40.874Z,11.50
2023-01-25T12:41:24.058Z,13.10
2023-01-25T12:43:55.840Z,13.93
2023-01-25T12:46:31.420Z,12.65
2023-01-25T12:49:02.427Z,16.20
2023-01-25T12:51:34.383Z,17.55
2023-01-25T12:54:02.729Z,12.38
2023-01-25T12:56:40.721Z,11.70
2023-01-25T12:59:13.707Z,10.10
2023-01-25T13:01:45.142Z,11.43
2023-01-25T13:04:26.728Z,9.95
2023-01-25T13:06:59.960Z,10.93
2023-01-25T13:09:48.632Z,9.70
2023-01-25T13:12:16.006Z,10.10
2023-01-25T13:14:43.485Z,12.40
2023-01-25T13:17:23.020Z,9.65
2023-01-25T13:19:51.449Z,7.78
2023-01-25T13:22:52.147Z,8.73
2023-01-25T13:25:19.741Z,8.57
2023-01-25T13:27:47.129Z,9.18
2023-01-25T13:30:34.812Z,9.30
2023-01-25T13:33:03.750Z,8.07
2023-01-25T13:38:18.614Z,8.27
2023-01-25T13:40:45.861Z,8.05
2023-01-25T13:43:13.043Z,8.88
2023-01-25T13:45:41.771Z,7.97
2023-01-25T13:48:14.526Z,8.57
2023-01-25T13:50:46.716Z,7.70
2023-01-25T13:53:16.712Z,7.93
2023-01-25T13:55:54.037Z,7.18
2023-01-25T13:58:24.171Z,7.00
2023-01-25T14:00:55.849Z,6.65
2023-01-25T14:03:28.778Z,6.30
2023-01-25T14:05:57.239Z,10.55
2023-01-25T14:08:25.558Z,6.88
2023-01-25T14:10:53.570Z,6.60
2023-01-25T14:13:20.804Z,6.63
2023-01-25T14:15:54.293Z,5.60
2023-01-25T14:18:22.351Z,6.13
2023-01-25T14:20:51.009Z,6.87
2023-01-25T14:23:22.271Z,6.53
2023-01-25T14:25:49.946Z,6.85
2023-01-25T14:28:17.909Z,6.57
2023-01-25T14:30:45.155Z,6.13
2023-01-25T14:33:32.418Z,6.63
2023-01-25T14:36:24.571Z,6.50
2023-01-25T14:38:52.950Z,5.55
2023-01-25T14:41:51.573Z,7.53
2023-01-25T14:44:26.609Z,5.90
2023-01-25T14:47:13.861Z,18.80
2023-01-25T14:49:41.129Z,9.95
2023-01-25T14:52:13.094Z,6.63
2023-01-25T14:54:54.209Z,6.32
2023-01-25T14:57:33.490Z,6.28
2023-01-25T15:00:01.559Z,5.88
2023-01-25T15:02:31.565Z,6.67
2023-01-25T15:05:10.945Z,5.53
2023-01-25T15:07:41.608Z,6.93
2023-01-25T15:10:23.948Z,6.15
2023-01-25T15:13:04.106Z,7.80
2023-01-25T15:15:35.660Z,7.75
2023-01-25T15:18:03.344Z,7.47
2023-01-25T15:20:34.883Z,7.95
2023-01-25T15:23:24.147Z,7.43
2023-01-25T15:25:52.390Z,7.60
2023-01-25T15:28:19.771Z,8.90
2023-01-25T15:30:47.264Z,7.97
2023-01-25T15:33:18.632Z,8.02
2023-01-25T15:35:45.866Z,8.85
2023-01-25T15:38:14.578Z,8.70
2023-01-25T15:40:42.152Z,10.23
2023-01-25T15:43:11.230Z,9.98
2023-01-25T15:45:38.869Z,8.38
2023-01-25T15:48:06.137Z,9.27
2023-01-25T15:50:33.375Z,9.18
2023-01-25T15:53:00.621Z,7.55
2023-01-25T15:55:27.818Z,8.27
2023-01-25T15:57:55.158Z,9.35
2023-01-25T16:00:23.613Z,9.10
2023-01-25T16:02:51.123Z,9.30
2023-01-25T16:05:18.392Z,8.60
2023-01-25T16:07:46.747Z,8.43
2023-01-25T16:10:24.583Z,11.05
2023-01-25T16:12:51.818Z,10.75
2023-01-25T16:15:19.053Z,10.98
2023-01-25T16:17:46.323Z,10.07
2023-01-25T16:20:19.147Z,9.00
2023-01-25T16:22:46.696Z,9.98
2023-01-25T16:25:14.478Z,9.52
2023-01-25T16:27:41.760Z,9.88
2023-01-25T16:30:09.870Z,9.68
2023-01-25T16:32:37.199Z,9.07
2023-01-25T16:35:04.542Z,10.13
2023-01-25T16:37:31.800Z,9.77
2023-01-25T16:39:59.119Z,9.95
2023-01-25T16:42:26.382Z,9.63
2023-01-25T16:44:53.532Z,10.15
2023-01-25T16:47:20.740Z,9.75
2023-01-25T16:49:47.954Z,9.95
2023-01-25T16:52:15.165Z,9.85
2023-01-25T16:54:42.399Z,9.02
2023-01-25T16:57:20.156Z,10.15
2023-01-25T16:59:47.870Z,10.25
2023-01-25T17:02:15.076Z,13.02
2023-01-25T17:04:43.128Z,10.07
2023-01-25T17:07:12.205Z,9.65
2023-01-25T17:09:39.532Z,9.23
2023-01-25T17:12:09.193Z,8.93
2023-01-25T17:14:36.603Z,10.05
2023-01-25T17:17:05.387Z,10.10
2023-01-25T17:19:32.699Z,11.23
2023-01-25T17:22:00.041Z,9.45
2023-01-25T17:24:27.515Z,8.90
2023-01-25T17:26:58.191Z,8.75
2023-01-25T17:29:26.185Z,9.27
2023-01-25T17:31:53.847Z,8.90
2023-01-25T17:34:21.966Z,8.87
2023-01-25T17:36:50.047Z,9.60
2023-01-25T17:39:17.830Z,8.73
2023-01-25T17:41:45.467Z,9.00
2023-01-25T17:44:13.166Z,8.90
2023-01-25T17:46:40.536Z,10.68
2023-01-25T17:49:08.813Z,10.07
2023-01-25T17:51:36.617Z,9.18
2023-01-25T17:54:04.808Z,9.75
2023-01-25T17:56:32.186Z,9.30
2023-01-25T17:59:04.482Z,9.55
2023-01-25T18:01:32.168Z,9.07
2023-01-25T18:04:00.773Z,9.10
2023-01-25T18:06:30.668Z,10.75
2023-01-25T18:09:02.065Z,9.48
2023-01-25T18:11:31.070Z,10.43
2023-01-25T18:16:26.965Z,9.95
2023-01-25T18:18:54.838Z,9.00
2023-01-25T18:21:26.355Z,8.75
2023-01-25T18:23:57.892Z,8.75
2023-01-25T18:26:25.124Z,9.30
2023-01-25T18:28:58.344Z,10.90
2023-01-25T18:31:25.925Z,10.45
2023-01-25T18:33:53.259Z,9.57
2023-01-25T18:36:20.654Z,10.50
2023-01-25T18:38:47.998Z,11.38
2023-01-25T18:41:15.200Z,9.77
2023-01-25T18:43:42.635Z,9.63
2023-01-25T18:46:11.618Z,32.58
2023-01-25T18:48:39.945Z,11.25
2023-01-25T18:51:07.650Z,10.35
2023-01-25T18:53:35.928Z,9.88
2023-01-25T18:56:05.181Z,9.52
2023-01-25T18:58:32.899Z,10.05
2023-01-25T19:01:07.555Z,10.20
2023-01-25T19:03:34.820Z,9.80
2023-01-25T19:06:02.399Z,10.32
2023-01-25T19:08:29.780Z,9.75
2023-01-25T19:11:04.327Z,15.60
2023-01-25T19:13:34.153Z,11.93
2023-01-25T19:16:05.914Z,11.00
2023-01-25T19:18:33.939Z,9.15
2023-01-25T19:21:01.562Z,10.30
2023-01-25T19:23:38.941Z,9.48
2023-01-25T19:26:07.242Z,10.88
2023-01-25T19:28:34.876Z,10.25
2023-01-25T19:31:08.798Z,8.77
2023-01-25T19:33:36.723Z,9.48
2023-01-25T19:36:04.704Z,10.43
2023-01-25T19:38:32.555Z,9.25
2023-01-25T19:41:07.300Z,10.63
2023-01-25T19:43:34.743Z,9.65
2023-01-25T19:46:09.465Z,10.90
2023-01-25T19:48:37.205Z,10.13
2023-01-25T19:51:18.704Z,10.52
2023-01-25T19:53:47.523Z,11.07
2023-01-25T19:56:16.337Z,10.05
2023-01-25T19:58:47.540Z,9.60
2023-01-25T20:01:15.968Z,10.63
2023-01-25T20:03:43.438Z,8.90
2023-01-25T20:06:11.631Z,10.23
2023-01-25T20:08:40.005Z,9.57
2023-01-25T20:11:15.049Z,9.25
2023-01-25T20:13:42.730Z,10.07
2023-01-25T20:16:11.058Z,10.43
2023-01-25T20:18:38.570Z,9.10
2023-01-25T20:21:07.283Z,9.73
2023-01-25T20:23:38.450Z,8.23
2023-01-25T20:26:14.520Z,8.88
2023-01-25T20:28:42.234Z,9.02
2023-01-25T20:31:18.694Z,10.05
2023-01-25T20:33:46.001Z,9.73
2023-01-25T20:36:13.308Z,17.60
2023-01-25T20:38:40.554Z,12.75
2023-01-25T20:41:09.098Z,9.48
2023-01-25T20:43:36.441Z,9.13
2023-01-25T20:46:03.765Z,9.50
2023-01-25T20:48:36.327Z,8.85
2023-01-25T20:51:05.068Z,9.25
2023-01-25T20:53:33.872Z,8.35
2023-01-25T20:56:01.204Z,8.82
2023-01-25T20:58:29.069Z,9.55
2023-01-25T21:00:56.664Z,7.90
2023-01-25T21:03:24.316Z,18.05
2023-01-25T21:05:51.608Z,10.50
2023-01-25T21:08:19.389Z,10.43
2023-01-25T21:10:53.680Z,9.23
2023-01-25T21:13:20.960Z,9.80
2023-01-25T21:16:07.246Z,10.07
2023-01-25T21:18:35.995Z,10.30
2023-01-25T21:21:03.274Z,8.68
2023-01-25T21:23:30.479Z,7.78
2023-01-25T21:25:57.955Z,7.57
2023-01-25T21:28:25.230Z,9.30
2023-01-25T21:30:52.594Z,8.65
2023-01-25T21:33:19.887Z,8.88
2023-01-25T21:35:47.145Z,9.63
2023-01-25T21:38:14.431Z,7.57
2023-01-25T21:40:41.750Z,8.15
2023-01-25T21:43:10.287Z,7.68
2023-01-25T21:45:57.602Z,8.27
2023-01-25T21:48:43.716Z,8.65
2023-01-25T21:51:32.734Z,7.50
2023-01-25T21:54:00.146Z,8.00
2023-01-25T21:56:27.351Z,8.30
2023-01-25T21:58:54.583Z,8.73
2023-01-25T22:01:22.778Z,8.77
2023-01-25T22:03:51.070Z,7.82
2023-01-25T22:06:19.160Z,8.65
2023-01-25T22:08:46.948Z,8.63
2023-01-25T22:11:14.422Z,8.07
2023-01-25T22:13:42.000Z,8.27
2023-01-25T22:16:09.952Z,8.48
2023-01-25T22:18:38.266Z,8.00
2023-01-25T22:21:07.317Z,8.32
2023-01-25T22:23:35.903Z,9.13
2023-01-25T22:26:16.476Z,8.52
2023-01-25T22:28:50.892Z,8.35
2023-01-25T22:31:20.352Z,8.18
2023-01-25T22:33:48.072Z,9.45
2023-01-25T22:36:16.236Z,8.90
2023-01-25T22:38:43.667Z,8.60
2023-01-25T22:41:12.601Z,7.65
2023-01-25T22:46:08.080Z,7.43
2023-01-25T22:48:35.384Z,7.80
2023-01-25T22:51:06.421Z,7.50
2023-01-25T22:53:34.291Z,6.65
2023-01-25T22:56:05.402Z,8.50
2023-01-25T22:58:34.015Z,7.88
2023-01-25T23:01:01.346Z,6.88
2023-01-25T23:03:28.654Z,8.23
2023-01-25T23:05:59.563Z,7.18
2023-01-25T23:08:27.004Z,7.97
2023-01-25T23:10:59.418Z,7.97
2023-01-25T23:13:29.155Z,7.75
2023-01-25T23:15:56.933Z,7.28
2023-01-25T23:18:42.878Z,7.68
2023-01-25T23:21:10.093Z,7.82
2023-01-25T23:23:37.346Z,7.07
2023-01-25T23:26:04.666Z,6.93
2023-01-25T23:28:32.006Z,7.65
2023-01-25T23:31:17.258Z,8.07
2023-01-25T23:33:49.020Z,7.30
2023-01-25T23:36:17.673Z,7.22
2023-01-25T23:38:45.142Z,8.75
2023-01-25T23:41:15.856Z,7.22
2023-01-25T23:43:43.374Z,9.10
2023-01-25T23:46:10.997Z,6.70
2023-01-25T23:48:38.250Z,7.20
2023-01-25T23:51:05.647Z,8.55
2023-01-25T23:53:32.919Z,8.23
2023-01-25T23:56:01.552Z,7.20
2023-01-25T23:58:29.517Z,8.00
